Kawasaki, Japan
Current Conditions -  °F | °C
As of 6:00 AM on Saturday 20 Dec 2014 (Local Time) from RJTT Reporting Station
Broken Clouds Broken Clouds  
Wind Chill:   Ceiling: 16000
Heat Index:   Visibility: 6mi
Dew Point: -3°   Wind: 3mph
Humidity: 53%   Direction: 70°ENE
Pressure: 30.27"   Gusts: NA
Location:  35.53°N, 139.7°E
Report Text: RJTT 192100Z 07003KT 040V110 9999 FEW050 BKN160 BKN/// 06/M03 Q1025 NOSIG
Loading
Personal Weather Stations






























Interactive Weather Map New forecast layout! Learn more

10-Day Weather Forecast

Advertisements
Track Severe Weather on mobile